Time;durP1;ratioP1;P1;durP2;ratioP2;P2;SDS_P1;SDS_P2;PMS_P1;PMS_P2;Temp;Humidity;BMP_temperature;BMP_pressure;BME280_temperature;BME280_humidity;BME280_pressure;Samples;Min_cycle;Max_cycle;Signal;HPM_P1;HPM_P2
2023/10/02 00:00:18;;;;;;;2.08;1.27;;;21.60;65.20;;;;;;6250183;28;20112;-74
2023/10/02 00:03:21;;;;;;;2.58;1.25;;;21.60;65.20;;;;;;6262110;28;20033;-74
2023/10/02 00:06:23;;;;;;;1.90;1.25;;;21.60;65.30;;;;;;6263911;28;20036;-74
2023/10/02 00:09:25;;;;;;;1.83;1.17;;;21.60;65.20;;;;;;6261998;28;20036;-73
2023/10/02 00:12:29;;;;;;;2.15;1.38;;;21.60;65.30;;;;;;6262179;28;20025;-72
2023/10/02 00:15:30;;;;;;;1.83;1.17;;;21.60;65.30;;;;;;6247367;28;20049;-71
2023/10/02 00:18:31;;;;;;;2.20;1.13;;;21.60;65.30;;;;;;6271513;28;20031;-72
2023/10/02 00:21:37;;;;;;;1.70;1.13;;;21.60;65.30;;;;;;6258456;28;20041;-72
2023/10/02 00:24:39;;;;;;;1.85;0.98;;;21.50;65.20;;;;;;6251189;28;20025;-73
2023/10/02 00:27:40;;;;;;;1.88;1.17;;;21.60;65.40;;;;;;6271409;28;20418;-72
2023/10/02 00:30:42;;;;;;;1.98;1.30;;;21.50;65.20;;;;;;6271622;28;20110;-73
2023/10/02 00:33:43;;;;;;;1.85;1.10;;;21.50;65.20;;;;;;6264470;28;20048;-73
2023/10/02 00:36:44;;;;;;;5.07;1.30;;;21.60;65.40;;;;;;6260583;28;20036;-74
2023/10/02 00:39:48;;;;;;;3.85;1.10;;;21.50;65.20;;;;;;6267262;28;20033;-72
2023/10/02 00:42:49;;;;;;;1.60;1.20;;;21.50;65.30;;;;;;6271490;28;20043;-72
2023/10/02 00:45:58;;;;;;;2.53;1.40;;;21.50;65.20;;;;;;6269972;28;20025;-71
2023/10/02 00:49:23;;;;;;;2.63;1.30;;;21.50;65.30;;;;;;6270810;28;20498;-72
2023/10/02 00:52:21;;;;;;;2.10;1.27;;;21.50;65.30;;;;;;6265276;28;20029;-72
2023/10/02 00:55:24;;;;;;;1.75;1.13;;;21.50;65.30;;;;;;6269255;28;20123;-72
2023/10/02 00:58:25;;;;;;;1.77;1.20;;;21.50;65.30;;;;;;6261067;28;20029;-73
2023/10/02 01:01:27;;;;;;;2.05;1.20;;;21.50;65.30;;;;;;6261246;28;20040;-75
2023/10/02 01:04:34;;;;;;;1.83;1.02;;;21.50;65.30;;;;;;6247137;28;20087;-74
2023/10/02 01:07:35;;;;;;;1.63;1.10;;;21.50;65.40;;;;;;6257703;28;20032;-73
2023/10/02 01:10:40;;;;;;;3.25;1.30;;;21.50;65.40;;;;;;6250094;28;20033;-72
2023/10/02 01:13:42;;;;;;;2.00;0.93;;;21.50;65.30;;;;;;6252058;28;20454;-72
2023/10/02 01:16:50;;;;;;;1.95;1.30;;;21.50;65.40;;;;;;6264105;28;20030;-71
2023/10/02 01:19:57;;;;;;;1.10;0.90;;;21.50;65.40;;;;;;6253107;28;20073;-72
2023/10/02 01:23:16;;;;;;;1.55;1.05;;;21.50;65.40;;;;;;6263008;28;20025;-72
2023/10/02 01:26:18;;;;;;;1.70;1.10;;;21.50;65.40;;;;;;6264800;28;20103;-72
2023/10/02 01:29:19;;;;;;;1.80;1.25;;;21.50;65.40;;;;;;6259224;28;20122;-72
2023/10/02 01:32:20;;;;;;;2.05;1.33;;;21.50;65.40;;;;;;6253251;28;20029;-73
2023/10/02 01:35:22;;;;;;;1.58;1.10;;;21.50;65.40;;;;;;6252969;28;20033;-73
2023/10/02 01:38:29;;;;;;;1.75;0.98;;;21.50;65.40;;;;;;6254841;28;20044;-74
2023/10/02 01:41:32;;;;;;;1.83;1.20;;;21.50;65.40;;;;;;6269416;28;20025;-73
2023/10/02 01:44:32;;;;;;;1.35;1.05;;;21.50;65.40;;;;;;6265352;28;20024;-74
2023/10/02 01:47:41;;;;;;;1.83;1.20;;;21.50;66.30;;;;;;6259991;28;20026;-74
2023/10/02 01:50:43;;;;;;;2.08;1.20;;;21.50;65.40;;;;;;6262301;28;20059;-75
2023/10/02 01:53:46;;;;;;;2.47;1.42;;;21.50;65.40;;;;;;6252466;28;20024;-73
2023/10/02 01:56:47;;;;;;;1.23;0.80;;;21.50;65.50;;;;;;6245706;28;20053;-73
2023/10/02 01:59:49;;;;;;;1.98;1.23;;;21.50;65.50;;;;;;6260730;28;20017;-73
2023/10/02 02:03:14;;;;;;;1.70;1.17;;;21.50;65.40;;;;;;6250353;28;20043;-74
2023/10/02 02:06:10;;;;;;;1.42;0.90;;;21.50;65.40;;;;;;6245967;28;20029;-74
2023/10/02 02:09:22;;;;;;;2.35;1.10;;;21.50;65.40;;;;;;6268614;28;20502;-73
2023/10/02 02:12:24;;;;;;;1.25;0.95;;;21.50;65.40;;;;;;6249746;28;20609;-73
2023/10/02 02:15:25;;;;;;;1.98;1.20;;;21.50;65.40;;;;;;6256917;28;20592;-73
2023/10/02 02:18:26;;;;;;;2.45;1.13;;;21.50;65.40;;;;;;6261200;28;20078;-73
2023/10/02 02:21:28;;;;;;;1.50;0.90;;;21.50;65.40;;;;;;6253856;28;20033;-74
2023/10/02 02:24:34;;;;;;;0.95;0.80;;;21.50;65.50;;;;;;6260370;28;20119;-72
2023/10/02 02:27:35;;;;;;;1.67;0.98;;;21.50;65.40;;;;;;6268961;28;20475;-72
2023/10/02 02:30:40;;;;;;;1.35;1.05;;;21.50;65.40;;;;;;6267256;28;20108;-72
2023/10/02 02:33:42;;;;;;;1.90;1.00;;;21.50;65.40;;;;;;6267489;28;20033;-72
2023/10/02 02:36:47;;;;;;;1.75;1.00;;;21.50;65.50;;;;;;6255431;28;20040;-73
2023/10/02 02:39:49;;;;;;;1.70;1.02;;;21.50;65.40;;;;;;6252508;28;20045;-74
2023/10/02 02:42:51;;;;;;;1.10;0.90;;;21.50;65.40;;;;;;6256277;28;20026;-74
2023/10/02 02:45:52;;;;;;;1.85;1.15;;;21.50;65.40;;;;;;6248035;28;20048;-74
2023/10/02 02:48:56;;;;;;;1.10;0.95;;;21.50;65.50;;;;;;6259989;28;20031;-73
2023/10/02 02:51:56;;;;;;;0.98;0.70;;;21.50;65.40;;;;;;6265042;28;20724;-72
2023/10/02 02:55:12;;;;;;;1.70;1.10;;;21.50;65.40;;;;;;6252705;28;20025;-73
2023/10/02 02:58:13;;;;;;;1.77;1.00;;;21.50;65.50;;;;;;6252261;28;20112;-73
2023/10/02 03:01:21;;;;;;;1.60;1.10;;;21.50;65.50;;;;;;6258811;28;20476;-73
2023/10/02 03:04:22;;;;;;;1.73;1.10;;;21.50;65.40;;;;;;6258345;28;20028;-74
2023/10/02 03:07:36;;;;;;;1.02;0.75;;;21.50;65.50;;;;;;6259311;28;20021;-74
2023/10/02 03:10:39;;;;;;;1.50;0.93;;;21.50;65.40;;;;;;6262474;28;20029;-73
2023/10/02 03:13:40;;;;;;;1.52;0.93;;;21.50;65.40;;;;;;6266076;28;20032;-73
2023/10/02 03:16:44;;;;;;;1.58;0.90;;;21.50;65.50;;;;;;6268078;28;20472;-74
2023/10/02 03:19:45;;;;;;;2.17;1.13;;;21.50;65.50;;;;;;6261211;28;20018;-72
2023/10/02 03:22:51;;;;;;;1.20;1.00;;;21.50;65.50;;;;;;6262093;28;20021;-72
2023/10/02 03:25:56;;;;;;;1.30;0.93;;;21.50;65.50;;;;;;6266327;28;20484;-73
2023/10/02 03:29:04;;;;;;;1.37;1.23;;;21.50;65.40;;;;;;6273448;28;20029;-72
2023/10/02 03:32:06;;;;;;;1.67;1.20;;;21.50;65.60;;;;;;6276406;28;20275;-72
2023/10/02 03:35:12;;;;;;;1.13;0.82;;;21.50;65.60;;;;;;6274792;28;20025;-71
2023/10/02 03:38:14;;;;;;;1.95;1.10;;;21.50;65.50;;;;;;6275410;28;20052;-73
2023/10/02 03:41:16;;;;;;;1.45;1.05;;;21.50;65.60;;;;;;6266551;28;20026;-72
2023/10/02 03:44:17;;;;;;;1.15;0.80;;;21.50;65.50;;;;;;6264624;28;20112;-73
2023/10/02 03:47:18;;;;;;;1.65;0.90;;;21.50;65.50;;;;;;6274819;28;20348;-73
2023/10/02 03:50:20;;;;;;;1.58;1.00;;;21.50;65.60;;;;;;6256116;28;20068;-73
2023/10/02 03:53:28;;;;;;;1.05;0.80;;;21.50;65.60;;;;;;6268322;28;20029;-72
2023/10/02 03:56:42;;;;;;;1.77;1.20;;;21.50;65.60;;;;;;6275066;28;20652;-72
2023/10/02 04:03:55;;;;;;;1.58;0.98;;;21.50;65.60;;;;;;6277283;28;20535;-71
2023/10/02 04:06:56;;;;;;;1.48;1.00;;;21.50;65.60;;;;;;6275386;28;20031;-72
2023/10/02 04:09:57;;;;;;;1.02;0.70;;;21.50;65.60;;;;;;6274866;28;20423;-71
2023/10/02 04:13:00;;;;;;;1.90;1.15;;;21.50;65.70;;;;;;6271623;28;20106;-71
2023/10/02 04:19:23;;;;;;;1.63;0.85;;;21.50;65.60;;;;;;6272630;28;20048;-72
2023/10/02 04:22:25;;;;;;;1.33;1.00;;;21.50;65.70;;;;;;6271318;28;20024;-71
2023/10/02 04:25:26;;;;;;;1.25;0.80;;;21.50;65.60;;;;;;6272128;28;20021;-72
2023/10/02 04:28:39;;;;;;;1.55;0.95;;;21.50;65.60;;;;;;6270713;28;20025;-72
2023/10/02 04:31:44;;;;;;;1.20;0.80;;;21.50;65.60;;;;;;6270774;28;20029;-71
2023/10/02 04:34:56;;;;;;;1.42;0.88;;;21.50;65.70;;;;;;6272252;28;20070;-71
2023/10/02 04:37:58;;;;;;;1.00;0.80;;;21.50;65.70;;;;;;6270952;28;20045;-71
2023/10/02 04:41:03;;;;;;;0.95;0.80;;;21.50;65.70;;;;;;6270930;28;20744;-72
2023/10/02 04:44:04;;;;;;;;;;;21.50;65.50;;;;;;6272742;28;20032;-71
2023/10/02 04:47:19;;;;;;;1.38;1.08;;;21.50;65.60;;;;;;6271565;28;19912;-72
2023/10/02 04:53:24;;;;;;;1.10;0.80;;;21.50;65.70;;;;;;6257544;28;20450;-72
2023/10/02 04:56:28;;;;;;;1.00;0.80;;;21.50;65.60;;;;;;6253876;28;20090;-73
2023/10/02 04:59:51;;;;;;;1.10;0.93;;;21.50;65.60;;;;;;6261022;28;20049;-72
2023/10/02 05:03:09;;;;;;;1.27;0.82;;;21.50;65.60;;;;;;6257510;28;20678;-72
2023/10/02 05:06:16;;;;;;;1.38;0.90;;;21.50;65.60;;;;;;6269772;28;20032;-72
2023/10/02 05:12:22;;;;;;;1.15;0.80;;;21.50;65.60;;;;;;6258169;28;20392;-72
2023/10/02 05:15:23;;;;;;;1.15;0.90;;;21.50;65.70;;;;;;6260570;28;20035;-72
2023/10/02 05:18:24;;;;;;;1.92;1.13;;;21.50;65.60;;;;;;6253851;28;20017;-72
2023/10/02 05:21:49;;;;;;;1.30;1.00;;;21.50;65.60;;;;;;6256153;28;20021;-72
2023/10/02 05:25:04;;;;;;;1.20;0.80;;;21.50;65.60;;;;;;6244187;28;20038;-72
2023/10/02 05:28:05;;;;;;;1.30;0.82;;;21.50;65.70;;;;;;6278010;28;20033;-72
2023/10/02 05:31:07;;;;;;;1.65;0.88;;;21.50;65.70;;;;;;6260882;28;20029;-73
2023/10/02 05:34:13;;;;;;;1.70;1.10;;;21.50;65.60;;;;;;6269058;28;20396;-73
2023/10/02 05:37:23;;;;;;;1.75;1.15;;;21.50;65.70;;;;;;6262235;28;20340;-73
2023/10/02 05:43:24;;;;;;;3.78;1.08;;;21.60;65.70;;;;;;6273479;28;20024;-72
2023/10/02 05:46:52;;;;;;;4.22;1.00;;;21.60;65.50;;;;;;6269022;28;20025;-73
2023/10/02 05:49:48;;;;;;;3.55;1.00;;;21.60;66.50;;;;;;6281587;28;20025;-73
2023/10/02 05:52:51;;;;;;;1.75;1.02;;;21.60;65.60;;;;;;6270503;28;20032;-73
2023/10/02 05:59:05;;;;;;;1.70;1.02;;;21.50;65.60;;;;;;6269524;28;20017;-73
2023/10/02 06:02:11;;;;;;;2.20;1.10;;;21.50;65.70;;;;;;6254175;28;20024;-73
2023/10/02 06:05:12;;;;;;;1.83;1.00;;;21.50;65.80;;;;;;6262762;28;20025;-73
2023/10/02 06:08:16;;;;;;;1.90;1.08;;;21.50;65.70;;;;;;6260680;28;20029;-73
2023/10/02 06:11:26;;;;;;;1.50;0.80;;;21.50;65.80;;;;;;6262824;28;20032;-73
2023/10/02 06:14:27;;;;;;;1.80;1.02;;;21.50;65.80;;;;;;6268183;28;20090;-73
2023/10/02 06:17:32;;;;;;;2.53;1.25;;;21.50;65.80;;;;;;6252377;28;20025;-73
2023/10/02 06:20:32;;;;;;;5.40;1.10;;;21.50;66.70;;;;;;6266287;28;20542;-73
2023/10/02 06:23:39;;;;;;;3.15;1.30;;;21.50;65.80;;;;;;6253771;28;20295;-73
2023/10/02 06:26:58;;;;;;;3.00;1.30;;;21.50;65.80;;;;;;6245106;28;20030;-73
2023/10/02 06:29:59;;;;;;;5.95;1.13;;;21.50;65.80;;;;;;6260200;28;20079;-73
2023/10/02 06:33:00;;;;;;;1.92;0.82;;;21.50;65.80;;;;;;6269172;28;20029;-73
2023/10/02 06:36:05;;;;;;;1.92;1.35;;;21.50;65.70;;;;;;6268236;28;20025;-73
2023/10/02 06:39:10;;;;;;;1.00;0.80;;;21.50;65.70;;;;;;6262199;28;20052;-73
2023/10/02 06:42:15;;;;;;;2.75;1.23;;;21.50;65.80;;;;;;6266065;28;20484;-73
2023/10/02 06:45:25;;;;;;;1.38;1.00;;;21.50;65.80;;;;;;6260982;28;20467;-73
2023/10/02 06:48:26;;;;;;;1.75;1.27;;;21.50;65.80;;;;;;6263143;28;20111;-73
2023/10/02 06:51:27;;;;;;;1.80;1.10;;;21.50;65.70;;;;;;6270353;28;20021;-72
2023/10/02 06:54:29;;;;;;;3.00;1.10;;;21.50;65.70;;;;;;6266002;28;20044;-73
2023/10/02 06:57:32;;;;;;;2.95;1.05;;;21.50;65.70;;;;;;6264107;28;20052;-73
2023/10/02 07:03:52;;;;;;;2.25;1.23;;;21.50;65.70;;;;;;6263957;28;20484;-72
2023/10/02 07:06:52;;;;;;;3.40;1.80;;;21.50;65.70;;;;;;6268607;28;20031;-73
2023/10/02 07:09:55;;;;;;;2.38;1.25;;;21.50;65.70;;;;;;6254073;28;20421;-73
2023/10/02 07:12:57;;;;;;;2.30;1.30;;;21.50;65.70;;;;;;6252532;28;20026;-73
2023/10/02 07:15:59;;;;;;;2.40;1.10;;;21.50;65.70;;;;;;6261362;28;20021;-73
2023/10/02 07:19:00;;;;;;;2.85;1.50;;;21.50;65.80;;;;;;6267475;28;20029;-73
2023/10/02 07:22:01;;;;;;;4.70;1.42;;;21.50;65.70;;;;;;6254368;28;20028;-73
2023/10/02 07:25:04;;;;;;;2.67;1.50;;;21.50;65.70;;;;;;6267886;28;20024;-73
2023/10/02 07:28:05;;;;;;;1.75;1.13;;;21.50;65.60;;;;;;6263934;28;20033;-73
2023/10/02 07:31:10;;;;;;;1.85;1.20;;;21.50;65.70;;;;;;6261761;28;20087;-73
2023/10/02 07:34:15;;;;;;;;;;;21.50;65.70;;;;;;6261005;28;20029;-73
2023/10/02 07:37:21;;;;;;;4.07;1.20;;;21.50;65.50;;;;;;6258823;28;19912;-73
2023/10/02 07:40:21;;;;;;;2.88;1.58;;;21.50;65.60;;;;;;6255514;28;20053;-73
2023/10/02 07:43:23;;;;;;;3.08;1.33;;;21.50;65.60;;;;;;6251756;28;20055;-73
2023/10/02 07:46:25;;;;;;;3.05;1.30;;;21.50;65.60;;;;;;6254376;28;20028;-73
2023/10/02 07:49:27;;;;;;;2.00;1.17;;;21.50;65.60;;;;;;6267364;28;20021;-73
2023/10/02 07:52:35;;;;;;;1.60;1.00;;;21.50;65.60;;;;;;6268820;28;20024;-73
2023/10/02 07:55:43;;;;;;;3.30;1.60;;;21.50;65.70;;;;;;6260626;28;20028;-73
2023/10/02 07:58:54;;;;;;;3.55;1.40;;;21.50;65.60;;;;;;6257572;28;20030;-73
2023/10/02 08:02:17;;;;;;;3.88;1.60;;;21.50;65.60;;;;;;6271150;28;20116;-73
2023/10/02 08:05:19;;;;;;;2.72;1.27;;;21.50;65.60;;;;;;6251542;28;20094;-73
2023/10/02 08:08:21;;;;;;;3.22;1.45;;;21.50;65.50;;;;;;6272667;28;20095;-73
2023/10/02 08:11:25;;;;;;;1.55;1.17;;;21.50;65.60;;;;;;6256409;28;20117;-73
2023/10/02 08:14:34;;;;;;;4.03;1.42;;;21.50;65.60;;;;;;6257339;28;20032;-73
2023/10/02 08:18:03;;;;;;;3.25;1.83;;;21.50;65.60;;;;;;6257060;28;20097;-73
2023/10/02 08:20:56;;;;;;;2.20;1.20;;;21.50;65.60;;;;;;6265303;28;20052;-73
2023/10/02 08:23:59;;;;;;;1.73;1.20;;;21.50;65.60;;;;;;6249224;28;20026;-73
2023/10/02 08:27:00;;;;;;;1.98;1.38;;;21.50;65.40;;;;;;6264199;28;20049;-73
2023/10/02 08:30:02;;;;;;;2.45;1.58;;;21.50;65.40;;;;;;6263939;28;20078;-73
2023/10/02 08:33:19;;;;;;;3.38;1.40;;;21.50;66.40;;;;;;6255706;28;20032;-73
2023/10/02 08:36:20;;;;;;;4.10;1.52;;;21.50;65.60;;;;;;6255558;28;20465;-73
2023/10/02 08:39:22;;;;;;;3.30;1.58;;;21.50;65.60;;;;;;6259184;28;20052;-73
2023/10/02 08:42:24;;;;;;;2.47;1.30;;;21.50;65.40;;;;;;6273055;28;20399;-73
2023/10/02 08:45:26;;;;;;;2.67;1.35;;;21.50;65.60;;;;;;6269342;28;20446;-73
2023/10/02 08:48:31;;;;;;;1.77;1.23;;;21.50;65.60;;;;;;6254745;28;20175;-73
2023/10/02 08:51:38;;;;;;;2.35;1.27;;;21.50;65.50;;;;;;6254351;28;20041;-73
2023/10/02 08:54:40;;;;;;;2.75;1.50;;;21.50;65.60;;;;;;6265480;28;20047;-73
2023/10/02 08:57:55;;;;;;;2.72;1.60;;;21.50;65.60;;;;;;6259539;28;20481;-73
2023/10/02 09:04:22;;;;;;;2.88;1.42;;;21.50;65.60;;;;;;6249551;28;20025;-73
2023/10/02 09:07:24;;;;;;;2.28;1.30;;;21.50;65.50;;;;;;6256810;28;20017;-73
2023/10/02 09:10:25;;;;;;;2.60;1.30;;;21.50;65.50;;;;;;6262684;28;20036;-73
2023/10/02 09:13:25;;;;;;;2.30;1.45;;;21.50;65.50;;;;;;6254244;28;20029;-73
2023/10/02 09:16:29;;;;;;;2.17;1.23;;;21.50;65.60;;;;;;6254384;28;20070;-73
2023/10/02 09:19:30;;;;;;;3.20;1.60;;;21.50;65.40;;;;;;6261066;28;20119;-73
2023/10/02 09:22:37;;;;;;;3.47;1.77;;;21.50;65.50;;;;;;6259436;28;20146;-73
2023/10/02 09:25:40;;;;;;;2.55;1.50;;;21.50;65.00;;;;;;6264404;28;20032;-73
2023/10/02 09:28:42;;;;;;;3.60;1.70;;;21.50;64.90;;;;;;6263940;28;20025;-73
2023/10/02 09:31:43;;;;;;;2.70;1.52;;;21.50;65.00;;;;;;6262998;28;20029;-73
2023/10/02 09:35:08;;;;;;;2.60;1.73;;;21.50;65.10;;;;;;6266078;28;20086;-73
2023/10/02 09:38:15;;;;;;;2.70;1.40;;;21.50;65.20;;;;;;6255543;28;20117;-73
2023/10/02 09:41:20;;;;;;;3.83;1.70;;;21.50;65.30;;;;;;6256341;28;20109;-73
2023/10/02 09:44:27;;;;;;;3.33;1.70;;;21.50;65.20;;;;;;6262017;28;20032;-73
2023/10/02 09:47:32;;;;;;;3.17;1.60;;;21.50;65.60;;;;;;6259233;28;20033;-73
2023/10/02 09:50:46;;;;;;;3.33;1.80;;;21.50;65.20;;;;;;6262740;28;20113;-73
2023/10/02 09:54:13;;;;;;;2.13;1.50;;;21.50;65.00;;;;;;6253832;28;20017;-73
2023/10/02 09:57:24;;;;;;;5.25;1.70;;;21.50;65.20;;;;;;6256079;28;20146;-73
2023/10/02 10:00:34;;;;;;;3.38;1.55;;;21.50;65.10;;;;;;6259163;28;20025;-73
2023/10/02 10:03:48;;;;;;;2.25;1.45;;;21.50;65.30;;;;;;6250548;28;20021;-73
2023/10/02 10:07:06;;;;;;;3.08;1.70;;;21.50;65.50;;;;;;6271143;28;20096;-74
2023/10/02 10:10:57;;;;;;;2.42;1.40;;;21.50;65.50;;;;;;6252318;28;20385;-73
2023/10/02 10:14:35;;;;;;;3.05;1.50;;;21.50;65.60;;;;;;6261575;28;20083;-73
2023/10/02 10:17:52;;;;;;;4.10;1.92;;;21.50;65.40;;;;;;6257397;28;20025;-73
2023/10/02 10:20:55;;;;;;;2.67;1.48;;;21.50;65.50;;;;;;6245979;28;20047;-73
2023/10/02 10:24:31;;;;;;;2.45;1.60;;;21.50;65.60;;;;;;6253520;28;20058;-73
2023/10/02 10:31:01;;;;;;;2.57;1.30;;;21.50;65.00;;;;;;6264440;28;20028;-72
2023/10/02 10:34:04;;;;;;;3.15;1.48;;;21.50;65.70;;;;;;6269247;28;20094;-73
2023/10/02 10:37:48;;;;;;;3.00;1.70;;;21.50;65.60;;;;;;6264396;28;20501;-72
2023/10/02 10:40:55;;;;;;;3.33;1.67;;;21.50;65.70;;;;;;6263525;28;20040;-73
2023/10/02 10:43:56;;;;;;;2.75;1.50;;;21.50;65.40;;;;;;6255678;28;20021;-73
2023/10/02 10:46:57;;;;;;;2.47;1.50;;;21.50;65.60;;;;;;6255665;28;20025;-73
2023/10/02 10:50:26;;;;;;;3.28;1.60;;;21.50;65.70;;;;;;6268565;28;20032;-73
2023/10/02 10:53:29;;;;;;;2.22;1.40;;;21.50;65.70;;;;;;6256948;28;20033;-73
2023/10/02 10:56:30;;;;;;;2.00;1.20;;;21.50;65.70;;;;;;6261474;28;20028;-74
2023/10/02 10:59:35;;;;;;;3.60;1.33;;;21.50;65.70;;;;;;6257711;28;20113;-72
2023/10/02 11:02:36;;;;;;;2.28;1.45;;;21.50;65.70;;;;;;6260201;28;20033;-72
2023/10/02 11:05:37;;;;;;;1.98;1.45;;;21.50;65.70;;;;;;6256846;28;20030;-72
2023/10/02 11:08:38;;;;;;;1.77;1.17;;;21.50;65.80;;;;;;6263030;28;20034;-72
2023/10/02 11:11:53;;;;;;;2.20;1.30;;;21.50;65.80;;;;;;6258465;28;20033;-72
2023/10/02 11:14:53;;;;;;;2.55;1.58;;;21.50;65.70;;;;;;6253455;28;20109;-72
2023/10/02 11:18:21;;;;;;;2.05;1.38;;;21.50;65.80;;;;;;6258504;28;20022;-72
2023/10/02 11:21:22;;;;;;;2.05;1.40;;;21.50;65.80;;;;;;6270419;28;20059;-72
2023/10/02 11:24:23;;;;;;;2.47;1.35;;;21.50;65.70;;;;;;6257129;28;20109;-72
2023/10/02 11:27:24;;;;;;;3.17;1.63;;;21.50;65.70;;;;;;6271001;28;20024;-72
2023/10/02 11:30:31;;;;;;;2.33;1.60;;;21.50;65.80;;;;;;6260629;28;20052;-73
2023/10/02 11:33:33;;;;;;;2.92;1.75;;;21.50;65.70;;;;;;6256384;28;20018;-72
2023/10/02 11:36:37;;;;;;;2.15;1.20;;;21.50;65.70;;;;;;6263875;28;20051;-72
2023/10/02 11:39:38;;;;;;;2.07;1.40;;;21.50;65.70;;;;;;6260444;28;20057;-72
2023/10/02 11:42:38;;;;;;;2.40;1.40;;;21.50;65.80;;;;;;6259654;28;20030;-72
2023/10/02 11:45:39;;;;;;;2.38;1.45;;;21.50;65.80;;;;;;6269068;28;20024;-72
2023/10/02 11:48:40;;;;;;;1.60;1.20;;;21.50;65.80;;;;;;6273828;28;20025;-72
2023/10/02 11:51:43;;;;;;;2.30;1.50;;;21.50;65.80;;;;;;6264848;28;20098;-72
2023/10/02 11:54:44;;;;;;;1.35;1.00;;;21.50;65.80;;;;;;6273886;28;20025;-72
2023/10/02 11:57:51;;;;;;;2.20;1.40;;;21.50;65.80;;;;;;6267817;28;20072;-72
2023/10/02 12:00:53;;;;;;;2.38;1.50;;;21.50;65.80;;;;;;6267333;28;20791;-73
2023/10/02 12:03:57;;;;;;;2.92;1.55;;;21.50;65.80;;;;;;6263725;28;20488;-72
2023/10/02 12:06:58;;;;;;;2.97;1.67;;;21.50;65.80;;;;;;6265781;28;20178;-72
2023/10/02 12:10:00;;;;;;;1.98;1.30;;;21.50;65.80;;;;;;6265876;28;20032;-72
2023/10/02 12:13:02;;;;;;;2.78;1.48;;;21.50;65.80;;;;;;6264574;28;20090;-72
2023/10/02 12:16:05;;;;;;;1.60;1.20;;;21.50;65.80;;;;;;6255958;28;20861;-72
2023/10/02 12:19:08;;;;;;;2.20;1.50;;;21.50;65.90;;;;;;6270104;28;20021;-72
2023/10/02 12:22:09;;;;;;;2.35;1.50;;;21.50;65.90;;;;;;6256358;28;20528;-72
2023/10/02 12:25:10;;;;;;;2.80;1.50;;;21.50;65.80;;;;;;6256852;28;20029;-72
2023/10/02 12:28:12;;;;;;;1.60;1.27;;;21.50;65.80;;;;;;6264915;28;20113;-72
2023/10/02 12:31:14;;;;;;;1.45;1.20;;;21.50;65.80;;;;;;6269542;28;20040;-73
2023/10/02 12:34:17;;;;;;;2.35;1.20;;;21.50;66.10;;;;;;6248542;28;20041;-72
2023/10/02 12:37:18;;;;;;;1.50;1.20;;;21.50;65.60;;;;;;6272086;28;20025;-72
2023/10/02 12:40:21;;;;;;;2.55;1.50;;;21.50;65.60;;;;;;6248602;28;20045;-72
2023/10/02 12:43:22;;;;;;;2.35;1.35;;;21.50;65.70;;;;;;6264990;28;20023;-73
2023/10/02 12:46:25;;;;;;;2.42;1.50;;;21.50;65.50;;;;;;6256763;28;20056;-73
2023/10/02 12:49:25;;;;;;;2.00;1.27;;;21.50;65.50;;;;;;6266407;28;20029;-73
2023/10/02 12:52:26;;;;;;;2.83;1.80;;;21.50;65.60;;;;;;6260700;28;20038;-72
2023/10/02 12:55:29;;;;;;;1.95;1.30;;;21.50;65.60;;;;;;6259986;28;20112;-72
2023/10/02 12:58:30;;;;;;;3.00;1.65;;;21.50;65.60;;;;;;6263590;28;20113;-72
2023/10/02 13:01:31;;;;;;;2.70;1.63;;;21.50;65.60;;;;;;6262831;28;20032;-73
2023/10/02 13:04:31;;;;;;;2.50;1.60;;;21.50;66.50;;;;;;6256561;28;20025;-72
2023/10/02 13:07:32;;;;;;;2.80;1.60;;;21.50;65.70;;;;;;6260846;28;20036;-72
2023/10/02 13:10:33;;;;;;;2.63;1.70;;;21.50;65.70;;;;;;6258074;28;20393;-72
2023/10/02 13:13:34;;;;;;;2.78;1.67;;;21.50;65.60;;;;;;6267034;28;20030;-72
2023/10/02 13:16:41;;;;;;;3.67;1.73;;;21.50;65.60;;;;;;6271096;28;20032;-72
2023/10/02 13:19:42;;;;;;;2.50;1.52;;;21.50;65.60;;;;;;6259151;28;20471;-73
2023/10/02 13:22:42;;;;;;;2.33;1.48;;;21.50;65.60;;;;;;6270635;28;20029;-72
2023/10/02 13:25:43;;;;;;;2.70;1.60;;;21.50;65.70;;;;;;6264718;28;20583;-72
2023/10/02 13:28:54;;;;;;;2.78;1.65;;;21.50;65.70;;;;;;6254267;28;20025;-72
2023/10/02 13:31:55;;;;;;;2.45;1.50;;;21.50;65.70;;;;;;6267191;28;20028;-72
2023/10/02 13:34:56;;;;;;;2.58;1.63;;;21.50;65.70;;;;;;6256946;28;20065;-72
2023/10/02 13:37:56;;;;;;;2.53;1.63;;;21.50;65.70;;;;;;6260211;28;20431;-72
2023/10/02 13:41:06;;;;;;;1.73;1.35;;;21.50;65.80;;;;;;6264995;28;20032;-72
2023/10/02 13:44:11;;;;;;;2.00;1.48;;;21.50;65.80;;;;;;6253735;28;20037;-72
2023/10/02 13:47:12;;;;;;;2.25;1.48;;;21.50;65.80;;;;;;6265982;28;20021;-73
2023/10/02 13:50:13;;;;;;;2.97;1.80;;;21.50;65.70;;;;;;6261524;28;20029;-72
2023/10/02 13:53:14;;;;;;;2.00;1.20;;;21.50;65.80;;;;;;6252395;28;20033;-72
2023/10/02 13:56:20;;;;;;;2.45;1.50;;;21.50;65.90;;;;;;6255374;28;20043;-73
2023/10/02 13:59:21;;;;;;;2.28;1.52;;;21.50;65.80;;;;;;6264112;28;20029;-72
2023/10/02 14:02:22;;;;;;;2.33;1.63;;;21.50;65.80;;;;;;6266083;28;20040;-72
2023/10/02 14:05:29;;;;;;;3.50;1.70;;;21.50;65.80;;;;;;6262747;28;20025;-74
2023/10/02 14:08:29;;;;;;;2.03;1.30;;;21.50;65.80;;;;;;6258598;28;20030;-72
2023/10/02 14:11:31;;;;;;;1.75;1.35;;;21.50;65.80;;;;;;6253296;28;20068;-72
2023/10/02 14:14:32;;;;;;;3.33;1.60;;;21.50;65.70;;;;;;6249996;28;20442;-73
2023/10/02 14:17:36;;;;;;;2.67;1.60;;;21.50;65.90;;;;;;6261315;28;20025;-72
2023/10/02 14:20:38;;;;;;;2.58;1.55;;;21.50;65.80;;;;;;6270781;28;20432;-73
2023/10/02 14:23:40;;;;;;;2.30;1.40;;;21.50;65.90;;;;;;6258881;28;20033;-72
2023/10/02 14:26:41;;;;;;;2.42;1.33;;;21.50;66.00;;;;;;6265098;28;20033;-72
2023/10/02 14:29:42;;;;;;;2.78;1.50;;;21.50;65.90;;;;;;6257921;28;20022;-72
2023/10/02 14:32:46;;;;;;;4.75;1.70;;;21.50;65.80;;;;;;6257836;28;20033;-73
2023/10/02 14:35:47;;;;;;;2.35;1.60;;;21.50;65.80;;;;;;6254543;28;20032;-72
2023/10/02 14:38:47;;;;;;;4.25;1.83;;;21.50;65.90;;;;;;6260628;28;20037;-72
2023/10/02 14:41:48;;;;;;;2.15;1.60;;;21.50;65.90;;;;;;6261130;28;20029;-73
2023/10/02 14:44:49;;;;;;;2.70;1.67;;;21.50;66.00;;;;;;6257533;28;20021;-72
2023/10/02 14:47:50;;;;;;;2.15;1.65;;;21.50;65.90;;;;;;6262101;28;20467;-72
2023/10/02 14:50:54;;;;;;;2.33;1.50;;;21.50;65.90;;;;;;6261750;28;20807;-72
2023/10/02 14:53:56;;;;;;;2.03;1.35;;;21.50;65.90;;;;;;6268402;28;20349;-72
2023/10/02 14:56:56;;;;;;;2.10;1.33;;;21.50;66.00;;;;;;6265122;28;20151;-72
2023/10/02 14:59:59;;;;;;;2.05;1.33;;;21.50;66.00;;;;;;6255064;28;20025;-73
2023/10/02 15:03:01;;;;;;;2.42;1.55;;;21.50;65.90;;;;;;6252240;28;20025;-72
2023/10/02 15:06:02;;;;;;;2.03;1.40;;;21.50;65.90;;;;;;6267701;28;20134;-73
2023/10/02 15:09:09;;;;;;;1.90;1.40;;;21.50;66.00;;;;;;6262444;28;20155;-73
2023/10/02 15:12:09;;;;;;;2.03;1.35;;;21.50;66.00;;;;;;6246058;28;20090;-72
2023/10/02 15:15:14;;;;;;;2.38;1.42;;;21.50;66.00;;;;;;6256064;28;20029;-73
2023/10/02 15:18:15;;;;;;;2.80;1.45;;;21.50;66.00;;;;;;6253222;28;20388;-72
2023/10/02 15:21:16;;;;;;;2.10;1.35;;;21.50;66.00;;;;;;6252418;28;20099;-73
2023/10/02 15:24:18;;;;;;;2.70;1.30;;;21.50;66.00;;;;;;6254468;28;20009;-72
2023/10/02 15:27:19;;;;;;;2.63;1.40;;;21.50;66.00;;;;;;6253283;28;20030;-73
2023/10/02 15:30:22;;;;;;;2.95;1.40;;;21.50;66.00;;;;;;6255542;28;20075;-70
2023/10/02 15:33:23;;;;;;;2.38;1.63;;;21.50;66.00;;;;;;6253922;28;20029;-71
2023/10/02 15:36:24;;;;;;;2.25;1.40;;;21.50;66.00;;;;;;6264631;28;20108;-71
2023/10/02 15:39:25;;;;;;;2.55;1.58;;;21.50;66.00;;;;;;6261245;28;20045;-71
2023/10/02 15:42:25;;;;;;;2.00;1.50;;;21.50;66.10;;;;;;6269492;28;20021;-70
2023/10/02 15:45:26;;;;;;;2.00;1.30;;;21.50;66.00;;;;;;6262461;28;20396;-72
2023/10/02 15:48:27;;;;;;;2.05;1.40;;;21.50;66.00;;;;;;6252021;28;20033;-69
2023/10/02 15:51:28;;;;;;;1.73;1.30;;;21.50;66.00;;;;;;6264092;28;20090;-70
2023/10/02 15:54:30;;;;;;;2.63;1.52;;;21.50;66.00;;;;;;6262967;28;20056;-70
2023/10/02 15:57:30;;;;;;;2.85;1.50;;;21.50;66.00;;;;;;6262809;28;20472;-69
2023/10/02 16:00:32;;;;;;;2.50;1.50;;;21.50;66.10;;;;;;6261096;28;20062;-70
2023/10/02 16:03:33;;;;;;;1.70;1.15;;;21.50;66.10;;;;;;6264692;28;20028;-70
2023/10/02 16:06:34;;;;;;;2.13;1.35;;;21.50;66.10;;;;;;6265111;28;20029;-69
2023/10/02 16:09:35;;;;;;;2.20;1.40;;;21.50;66.10;;;;;;6271704;28;20047;-68
2023/10/02 16:12:39;;;;;;;1.83;1.20;;;21.50;66.10;;;;;;6268182;28;20064;-69
2023/10/02 16:15:43;;;;;;;2.63;1.35;;;21.50;66.20;;;;;;6262647;28;20059;-69
2023/10/02 16:18:46;;;;;;;10.52;1.95;;;21.50;65.90;;;;;;6264461;28;20035;-73
2023/10/02 16:21:46;;;;;;;8.43;1.65;;;21.50;66.00;;;;;;6258012;28;20036;-71
2023/10/02 16:24:47;;;;;;;5.80;1.55;;;21.50;66.10;;;;;;6269490;28;20037;-73
2023/10/02 16:27:50;;;;;;;9.73;1.70;;;21.50;66.00;;;;;;6257153;28;20120;-72
2023/10/02 16:30:50;;;;;;;6.30;1.88;;;21.50;66.10;;;;;;6268571;28;20053;-70